createdAt,value
2017-12-06T00:00:43.895Z,0
2017-12-06T00:01:43.799Z,0
2017-12-06T00:02:43.884Z,0
2017-12-06T00:03:43.839Z,0
2017-12-06T00:04:43.792Z,0
2017-12-06T00:05:43.839Z,0
2017-12-06T00:06:43.841Z,0
2017-12-06T00:07:43.882Z,0
2017-12-06T00:08:43.840Z,0
2017-12-06T00:09:43.841Z,0
2017-12-06T00:10:43.788Z,0
2017-12-06T00:11:43.794Z,0
2017-12-06T00:12:43.900Z,0
2017-12-06T00:13:43.845Z,0
2017-12-06T00:14:43.847Z,0
2017-12-06T00:15:43.935Z,0
2017-12-06T00:16:43.884Z,0
2017-12-06T00:17:43.944Z,0
2017-12-06T00:18:43.943Z,0
2017-12-06T00:19:43.815Z,0
2017-12-06T00:20:43.930Z,0
2017-12-06T00:21:43.918Z,0
2017-12-06T00:22:43.953Z,0
2017-12-06T00:23:43.884Z,0
2017-12-06T00:24:43.948Z,0
2017-12-06T00:25:43.888Z,0
2017-12-06T00:26:43.949Z,0
2017-12-06T00:27:43.884Z,0
2017-12-06T00:28:43.955Z,0
2017-12-06T00:29:43.887Z,0
2017-12-06T00:30:43.951Z,0
2017-12-06T00:31:43.886Z,0
2017-12-06T00:32:43.953Z,0
2017-12-06T00:33:43.887Z,0
2017-12-06T00:34:43.973Z,0
2017-12-06T00:35:43.894Z,0
2017-12-06T00:36:43.955Z,0
2017-12-06T00:37:43.961Z,0
2017-12-06T00:38:43.890Z,0
2017-12-06T00:39:43.960Z,0
2017-12-06T00:40:43.960Z,0
2017-12-06T00:41:43.896Z,0
2017-12-06T00:42:43.962Z,0
2017-12-06T00:43:43.894Z,0
2017-12-06T00:44:43.958Z,0
2017-12-06T00:45:43.893Z,0
2017-12-06T00:46:43.961Z,0
2017-12-06T00:47:43.897Z,0
2017-12-06T00:48:43.897Z,0
2017-12-06T00:49:43.969Z,0
2017-12-06T00:50:43.897Z,0
2017-12-06T00:51:43.965Z,0
2017-12-06T00:52:43.904Z,0
2017-12-06T00:53:43.896Z,0
2017-12-06T00:54:43.986Z,0
2017-12-06T00:55:43.971Z,0
2017-12-06T00:56:43.934Z,0
2017-12-06T00:57:43.970Z,0
2017-12-06T00:58:43.902Z,0
2017-12-06T00:59:43.903Z,0
2017-12-06T01:00:43.904Z,0
2017-12-06T01:01:43.982Z,0
2017-12-06T01:02:43.904Z,0
2017-12-06T01:03:43.909Z,0
2017-12-06T01:04:43.984Z,0
2017-12-06T01:05:43.907Z,0
2017-12-06T01:06:43.974Z,0
2017-12-06T01:07:43.974Z,0
2017-12-06T01:08:43.974Z,0
2017-12-06T01:09:43.974Z,0
2017-12-06T01:10:43.909Z,0
2017-12-06T01:11:43.914Z,0
2017-12-06T01:12:43.859Z,0
2017-12-06T01:13:43.912Z,0
2017-12-06T01:14:43.862Z,0
2017-12-06T01:15:43.848Z,0
2017-12-06T01:16:43.862Z,0
2017-12-06T01:17:43.841Z,0
2017-12-06T01:18:43.808Z,0
2017-12-06T01:19:43.800Z,0
2017-12-06T01:20:43.887Z,0
2017-12-06T01:21:43.861Z,0
2017-12-06T01:22:43.884Z,0
2017-12-06T01:23:43.832Z,0
2017-12-06T01:24:43.837Z,0
2017-12-06T01:25:43.935Z,0
2017-12-06T01:26:43.843Z,0
2017-12-06T01:27:43.918Z,0
2017-12-06T01:28:43.881Z,0
2017-12-06T01:29:43.840Z,0
2017-12-06T01:30:43.888Z,0
2017-12-06T01:31:43.842Z,0
2017-12-06T01:32:43.888Z,0
2017-12-06T01:33:43.869Z,0
2017-12-06T01:34:43.981Z,0
2017-12-06T01:35:43.960Z,0
2017-12-06T01:36:43.989Z,0
2017-12-06T01:37:43.989Z,0
2017-12-06T01:38:43.926Z,0
2017-12-06T01:39:43.874Z,0
2017-12-06T01:40:43.936Z,0
2017-12-06T01:41:43.983Z,0
2017-12-06T01:42:43.923Z,0
2017-12-06T01:43:44.008Z,0
2017-12-06T01:44:43.996Z,0
2017-12-06T01:45:43.931Z,0
2017-12-06T01:46:43.997Z,0
2017-12-06T01:47:43.928Z,0
2017-12-06T01:48:43.885Z,0
2017-12-06T01:49:43.939Z,0
2017-12-06T01:50:44.001Z,0
2017-12-06T01:51:43.936Z,0
2017-12-06T01:52:43.934Z,0
2017-12-06T01:53:43.937Z,0
2017-12-06T01:54:44.002Z,0
2017-12-06T01:55:43.937Z,0
2017-12-06T01:56:44.002Z,0
2017-12-06T01:57:44.004Z,0
2017-12-06T01:58:43.939Z,0
2017-12-06T01:59:43.939Z,0
2017-12-06T02:00:44.028Z,0
2017-12-06T02:01:44.007Z,0
2017-12-06T02:02:44.006Z,0
2017-12-06T02:03:43.943Z,0
2017-12-06T02:04:44.009Z,0
2017-12-06T02:05:43.943Z,0
2017-12-06T02:06:44.008Z,0
2017-12-06T02:07:43.946Z,0
2017-12-06T02:08:44.016Z,0
2017-12-06T02:09:43.947Z,0
2017-12-06T02:10:43.947Z,0
2017-12-06T02:11:44.012Z,0
2017-12-06T02:12:43.946Z,0
2017-12-06T02:13:44.018Z,0
2017-12-06T02:14:43.949Z,0
2017-12-06T02:15:44.018Z,0
2017-12-06T02:16:43.948Z,0
2017-12-06T02:17:44.016Z,0
2017-12-06T02:18:44.011Z,0
2017-12-06T02:19:43.960Z,0
2017-12-06T02:20:44.031Z,0
2017-12-06T02:21:43.954Z,0
2017-12-06T02:22:43.905Z,0
2017-12-06T02:23:43.970Z,0
2017-12-06T02:24:43.962Z,0
2017-12-06T02:25:43.911Z,0
2017-12-06T02:26:43.879Z,0
2017-12-06T02:27:43.977Z,0
2017-12-06T02:28:43.910Z,0
2017-12-06T02:29:43.891Z,0
2017-12-06T02:30:43.890Z,0
2017-12-06T02:31:43.917Z,0
2017-12-06T02:32:44.029Z,0
2017-12-06T02:33:44.029Z,0
2017-12-06T02:34:43.956Z,0
2017-12-06T02:35:43.954Z,0
2017-12-06T02:36:44.026Z,0
2017-12-06T02:37:43.975Z,0
2017-12-06T02:38:44.027Z,0
2017-12-06T02:39:44.031Z,0
2017-12-06T02:40:44.031Z,0
2017-12-06T02:41:43.964Z,0
2017-12-06T02:42:43.977Z,0
2017-12-06T02:43:43.928Z,0
2017-12-06T02:44:43.900Z,0
2017-12-06T02:45:43.926Z,0
2017-12-06T02:46:43.930Z,0
2017-12-06T02:47:43.891Z,0
2017-12-06T02:48:43.927Z,0
2017-12-06T02:49:43.929Z,0
2017-12-06T02:50:43.888Z,0
2017-12-06T02:51:43.983Z,0
2017-12-06T02:52:44.042Z,0
2017-12-06T02:53:43.976Z,0
2017-12-06T02:54:43.974Z,0
2017-12-06T02:55:43.924Z,0
2017-12-06T02:56:43.977Z,0
2017-12-06T02:57:43.975Z,0
2017-12-06T02:58:43.973Z,0
2017-12-06T02:59:44.050Z,0
2017-12-06T03:00:44.048Z,0
2017-12-06T03:01:43.979Z,0
2017-12-06T03:02:43.895Z,0
2017-12-06T03:03:43.899Z,0
2017-12-06T03:04:43.897Z,0
2017-12-06T03:05:43.897Z,0
2017-12-06T03:06:43.946Z,0
2017-12-06T03:07:44.000Z,0
2017-12-06T03:08:43.946Z,0
2017-12-06T03:09:43.896Z,0
2017-12-06T03:10:44.003Z,0
2017-12-06T03:11:43.903Z,0
2017-12-06T03:12:43.954Z,0
2017-12-06T03:13:43.903Z,0
2017-12-06T03:14:43.905Z,0
2017-12-06T03:15:43.903Z,0
2017-12-06T03:16:43.954Z,0
2017-12-06T03:17:43.958Z,0
2017-12-06T03:18:43.954Z,0
2017-12-06T03:19:43.958Z,0
2017-12-06T03:20:43.906Z,0
2017-12-06T03:21:44.001Z,0
2017-12-06T03:22:43.908Z,0
2017-12-06T03:23:43.907Z,0
2017-12-06T03:24:44.008Z,0
2017-12-06T03:25:44.004Z,0
2017-12-06T03:26:44.007Z,0
2017-12-06T03:27:43.957Z,0
2017-12-06T03:28:43.907Z,0
2017-12-06T03:29:43.958Z,0
2017-12-06T03:30:43.914Z,0
2017-12-06T03:31:43.912Z,0
2017-12-06T03:32:43.996Z,0
2017-12-06T03:33:44.061Z,0
2017-12-06T03:34:43.995Z,0
2017-12-06T03:35:44.066Z,0
2017-12-06T03:36:44.063Z,0
2017-12-06T03:37:44.041Z,0
2017-12-06T03:38:44.000Z,0
2017-12-06T03:39:44.066Z,0
2017-12-06T03:40:44.087Z,0
2017-12-06T03:41:44.068Z,0
2017-12-06T03:42:43.972Z,0
2017-12-06T03:43:43.939Z,0
2017-12-06T03:44:44.062Z,0
2017-12-06T03:45:43.980Z,0
2017-12-06T03:46:44.060Z,0
2017-12-06T03:47:43.938Z,0
2017-12-06T03:48:44.010Z,0
2017-12-06T03:49:44.026Z,0
2017-12-06T03:50:44.065Z,0
2017-12-06T03:51:44.064Z,0
2017-12-06T03:52:44.075Z,0
2017-12-06T03:53:44.008Z,0
2017-12-06T03:54:44.073Z,0
2017-12-06T03:55:44.075Z,0
2017-12-06T03:56:44.011Z,0
2017-12-06T03:57:44.077Z,0
2017-12-06T03:58:44.021Z,0
2017-12-06T03:59:44.078Z,0
2017-12-06T04:00:44.012Z,0
2017-12-06T04:01:44.144Z,0
2017-12-06T04:02:44.081Z,0
2017-12-06T04:03:44.014Z,0
2017-12-06T04:04:44.082Z,0
2017-12-06T04:05:44.018Z,0
2017-12-06T04:06:44.017Z,0
2017-12-06T04:07:44.085Z,0
2017-12-06T04:08:44.021Z,0
2017-12-06T04:09:44.021Z,0
2017-12-06T04:10:44.104Z,0
2017-12-06T04:11:44.084Z,0
2017-12-06T04:12:44.078Z,0
2017-12-06T04:13:43.952Z,0
2017-12-06T04:14:44.156Z,0
2017-12-06T04:15:43.991Z,0
2017-12-06T04:16:43.990Z,0
2017-12-06T04:17:44.086Z,0
2017-12-06T04:18:44.086Z,0
2017-12-06T04:19:44.087Z,0
2017-12-06T04:20:43.993Z,0
2017-12-06T04:21:44.061Z,0
2017-12-06T04:22:43.953Z,0
2017-12-06T04:23:44.016Z,0
2017-12-06T04:24:44.071Z,0
2017-12-06T04:25:43.959Z,0
2017-12-06T04:26:43.989Z,0
2017-12-06T04:27:44.075Z,0
2017-12-06T04:28:44.075Z,0
2017-12-06T04:29:43.959Z,0
2017-12-06T04:30:44.075Z,0
2017-12-06T04:31:44.048Z,0
2017-12-06T04:32:43.987Z,0
2017-12-06T04:33:44.034Z,0
2017-12-06T04:34:43.988Z,0
2017-12-06T04:35:43.989Z,0
2017-12-06T04:36:44.067Z,0
2017-12-06T04:37:44.076Z,0
2017-12-06T04:38:43.996Z,0
2017-12-06T04:39:44.107Z,0
2017-12-06T04:40:44.086Z,0
2017-12-06T04:41:44.031Z,0
2017-12-06T04:42:44.105Z,0
2017-12-06T04:43:44.033Z,0
2017-12-06T04:44:44.039Z,0
2017-12-06T04:45:44.042Z,0
2017-12-06T04:46:44.106Z,0
2017-12-06T04:47:44.040Z,0
2017-12-06T04:48:44.106Z,0
2017-12-06T04:49:44.041Z,0
2017-12-06T04:50:44.108Z,0
2017-12-06T04:51:44.108Z,0
2017-12-06T04:52:44.044Z,0
2017-12-06T04:53:44.111Z,0
2017-12-06T04:54:44.042Z,0
2017-12-06T04:55:44.112Z,0
2017-12-06T04:56:44.044Z,0
2017-12-06T04:57:43.996Z,0
2017-12-06T04:58:44.122Z,0
2017-12-06T04:59:44.079Z,0
2017-12-06T05:00:44.052Z,0
2017-12-06T05:01:44.125Z,0
2017-12-06T05:02:44.051Z,0
2017-12-06T05:03:44.125Z,0
2017-12-06T05:04:44.124Z,0
2017-12-06T05:05:44.052Z,0
2017-12-06T05:06:44.116Z,0
2017-12-06T05:07:44.053Z,0
2017-12-06T05:08:44.140Z,0
2017-12-06T05:09:44.119Z,0
2017-12-06T05:10:44.053Z,0
2017-12-06T05:11:44.123Z,0
2017-12-06T05:12:44.119Z,0
2017-12-06T05:13:44.081Z,0
2017-12-06T05:14:44.160Z,0
2017-12-06T05:15:43.996Z,0
2017-12-06T05:16:44.032Z,0
2017-12-06T05:17:44.081Z,0
2017-12-06T05:18:44.120Z,0
2017-12-06T05:19:44.066Z,0
2017-12-06T05:20:44.120Z,0
2017-12-06T05:21:44.115Z,0
2017-12-06T05:22:44.141Z,0
2017-12-06T05:23:44.066Z,0
2017-12-06T05:24:44.129Z,0
2017-12-06T05:25:44.060Z,0
2017-12-06T05:26:44.133Z,0
2017-12-06T05:27:44.069Z,0
2017-12-06T05:28:44.133Z,0
2017-12-06T05:29:44.067Z,0
2017-12-06T05:30:44.069Z,0
2017-12-06T05:31:44.133Z,0
2017-12-06T05:32:44.062Z,0
2017-12-06T05:33:44.019Z,0
2017-12-06T05:34:44.009Z,0
2017-12-06T05:35:44.123Z,0
2017-12-06T05:36:44.120Z,0
2017-12-06T05:37:44.106Z,0
2017-12-06T05:38:44.093Z,0
2017-12-06T05:39:44.065Z,0
2017-12-06T05:40:44.135Z,0
2017-12-06T05:41:44.012Z,0
2017-12-06T05:42:44.229Z,0
2017-12-06T05:43:44.106Z,0
2017-12-06T05:44:44.143Z,0
2017-12-06T05:45:44.074Z,0
2017-12-06T05:46:44.076Z,0
2017-12-06T05:47:44.076Z,0
2017-12-06T05:48:44.150Z,0
2017-12-06T05:49:44.073Z,0
2017-12-06T05:50:44.102Z,0
2017-12-06T05:51:44.144Z,0
2017-12-06T05:52:44.081Z,0
2017-12-06T05:53:44.149Z,0
2017-12-06T05:54:44.083Z,0
2017-12-06T05:55:44.153Z,0
2017-12-06T05:56:44.084Z,0
2017-12-06T05:57:44.152Z,0
2017-12-06T05:58:44.085Z,0
2017-12-06T05:59:44.151Z,0
2017-12-06T06:00:44.088Z,0
2017-12-06T06:01:44.156Z,0
2017-12-06T06:02:44.087Z,0
2017-12-06T06:03:44.154Z,0
2017-12-06T06:04:44.085Z,0
2017-12-06T06:05:44.155Z,0
2017-12-06T06:06:44.093Z,0
2017-12-06T06:07:44.170Z,0
2017-12-06T06:08:44.155Z,0
2017-12-06T06:09:44.167Z,0
2017-12-06T06:10:44.095Z,0
2017-12-06T06:11:44.164Z,0
2017-12-06T06:12:44.178Z,0
2017-12-06T06:13:44.060Z,0
2017-12-06T06:14:44.030Z,0
2017-12-06T06:15:44.069Z,0
2017-12-06T06:16:44.026Z,0
2017-12-06T06:17:44.130Z,0
2017-12-06T06:18:44.069Z,0
2017-12-06T06:19:44.027Z,0
2017-12-06T06:20:44.083Z,0
2017-12-06T06:21:44.161Z,0
2017-12-06T06:22:44.084Z,0
2017-12-06T06:23:44.163Z,0
2017-12-06T06:24:44.169Z,0
2017-12-06T06:25:44.185Z,0
2017-12-06T06:26:44.165Z,0
2017-12-06T06:27:44.102Z,0
2017-12-06T06:28:44.171Z,0
2017-12-06T06:29:44.166Z,0
2017-12-06T06:30:44.106Z,0
2017-12-06T06:31:44.206Z,0
2017-12-06T06:32:44.105Z,0
2017-12-06T06:33:44.072Z,0
2017-12-06T06:34:44.038Z,0
2017-12-06T06:35:44.076Z,0
2017-12-06T06:36:44.079Z,0
2017-12-06T06:37:44.109Z,0
2017-12-06T06:38:44.091Z,0
2017-12-06T06:39:44.053Z,4
2017-12-06T06:40:44.113Z,4
2017-12-06T06:41:44.166Z,0
2017-12-06T06:42:44.116Z,4
2017-12-06T06:43:44.121Z,4
2017-12-06T06:44:44.111Z,4
2017-12-06T06:45:44.109Z,4
2017-12-06T06:46:44.186Z,4
2017-12-06T06:47:44.182Z,4
2017-12-06T06:48:44.153Z,8
2017-12-06T06:49:44.121Z,8
2017-12-06T06:50:44.179Z,12
2017-12-06T06:51:44.182Z,12
2017-12-06T06:52:44.115Z,16
2017-12-06T06:53:44.133Z,20
2017-12-06T06:54:44.159Z,28
2017-12-06T06:55:44.075Z,28
2017-12-06T06:56:44.048Z,32
2017-12-06T06:57:44.149Z,36
2017-12-06T06:58:44.112Z,40
2017-12-06T06:59:44.145Z,40
2017-12-06T07:00:44.166Z,48
2017-12-06T07:01:44.141Z,52
2017-12-06T07:02:44.046Z,56
2017-12-06T07:03:44.096Z,64
2017-12-06T07:04:44.181Z,72
2017-12-06T07:05:44.189Z,72
2017-12-06T07:06:44.057Z,80
2017-12-06T07:07:44.129Z,96
2017-12-06T07:08:44.184Z,96
2017-12-06T07:09:44.185Z,100
2017-12-06T07:10:44.149Z,108
2017-12-06T07:11:44.148Z,112
2017-12-06T07:12:44.055Z,124
2017-12-06T07:13:44.131Z,132
2017-12-06T07:14:44.169Z,148
2017-12-06T07:15:44.149Z,168
2017-12-06T07:16:44.177Z,176
2017-12-06T07:17:44.159Z,176
2017-12-06T07:18:44.122Z,192
2017-12-06T07:19:44.123Z,244
2017-12-06T07:20:44.126Z,244
2017-12-06T07:21:44.160Z,220
2017-12-06T07:22:44.059Z,220
2017-12-06T07:23:44.136Z,236
2017-12-06T07:24:44.133Z,268
2017-12-06T07:25:44.135Z,284
2017-12-06T07:26:44.220Z,292
2017-12-06T07:27:44.209Z,304
2017-12-06T07:28:44.140Z,328
2017-12-06T07:29:44.203Z,356
2017-12-06T07:30:44.144Z,368
2017-12-06T07:31:44.208Z,408
2017-12-06T07:32:44.182Z,428
2017-12-06T07:33:44.205Z,440
2017-12-06T07:34:44.179Z,472
2017-12-06T07:35:44.144Z,504
2017-12-06T07:36:44.142Z,508
2017-12-06T07:37:44.207Z,528
2017-12-06T07:38:44.207Z,524
2017-12-06T07:39:44.143Z,564
2017-12-06T07:40:44.214Z,604
2017-12-06T07:41:44.143Z,648
2017-12-06T07:42:44.218Z,644
2017-12-06T07:43:44.148Z,672
2017-12-06T07:44:44.102Z,676
2017-12-06T07:45:44.197Z,680
2017-12-06T07:46:44.174Z,664
2017-12-06T07:47:44.176Z,708
2017-12-06T07:48:44.171Z,780
2017-12-06T07:49:44.107Z,812
2017-12-06T07:50:44.153Z,744
2017-12-06T07:51:44.079Z,776
2017-12-06T07:52:44.179Z,840
2017-12-06T07:53:44.151Z,872
2017-12-06T07:54:44.094Z,876
2017-12-06T07:55:44.154Z,908
2017-12-06T07:56:44.163Z,948
2017-12-06T07:57:44.194Z,964
2017-12-06T07:58:44.156Z,972
2017-12-06T07:59:44.154Z,1032
2017-12-06T08:00:44.245Z,1060
2017-12-06T08:01:44.221Z,1100
2017-12-06T08:02:44.216Z,1124
2017-12-06T08:03:44.201Z,1112
2017-12-06T08:04:44.188Z,1176
2017-12-06T08:05:44.222Z,1196
2017-12-06T08:06:44.160Z,1164
2017-12-06T08:07:44.225Z,1300
2017-12-06T08:08:44.154Z,1304
2017-12-06T08:09:44.182Z,1472
2017-12-06T08:10:44.161Z,1480
2017-12-06T08:11:44.231Z,1392
2017-12-06T08:12:44.229Z,1444
2017-12-06T08:13:44.156Z,1516
2017-12-06T08:14:44.134Z,1616
2017-12-06T08:15:44.101Z,1700
2017-12-06T08:16:44.116Z,1632
2017-12-06T08:17:44.155Z,1664
2017-12-06T08:18:44.158Z,1692
2017-12-06T08:19:44.101Z,1640
2017-12-06T08:20:44.201Z,1584
2017-12-06T08:21:44.142Z,1608
2017-12-06T08:22:44.156Z,1644
2017-12-06T08:23:44.058Z,1724
2017-12-06T08:24:44.104Z,1732
2017-12-06T08:25:44.119Z,1732
2017-12-06T08:26:44.166Z,1844
2017-12-06T08:27:44.157Z,2008
2017-12-06T08:28:44.161Z,2072
2017-12-06T08:29:44.057Z,1968
2017-12-06T08:30:44.063Z,1876
2017-12-06T08:31:44.093Z,2152
2017-12-06T08:32:44.114Z,2224
2017-12-06T08:33:44.188Z,2120
2017-12-06T08:34:44.135Z,2160
2017-12-06T08:35:44.190Z,2164
2017-12-06T08:36:44.139Z,2316
2017-12-06T08:37:44.190Z,2336
2017-12-06T08:38:44.092Z,2368
2017-12-06T08:39:44.096Z,2408
2017-12-06T08:40:44.096Z,2524
2017-12-06T08:41:44.144Z,2392
2017-12-06T08:42:44.191Z,2512
2017-12-06T08:43:44.181Z,2672
2017-12-06T08:44:44.247Z,2828
2017-12-06T08:45:44.181Z,2708
2017-12-06T08:46:44.248Z,2600
2017-12-06T08:47:44.181Z,2584
2017-12-06T08:48:44.184Z,2644
2017-12-06T08:49:44.256Z,2904
2017-12-06T08:50:44.180Z,2812
2017-12-06T08:51:44.258Z,2796
2017-12-06T08:52:44.173Z,2980
2017-12-06T08:53:44.251Z,2832
2017-12-06T08:54:44.178Z,2748
2017-12-06T08:55:44.254Z,2952
2017-12-06T08:56:44.255Z,3108
2017-12-06T08:57:44.185Z,3296
2017-12-06T08:58:44.256Z,3120
2017-12-06T08:59:44.185Z,3064
2017-12-06T09:00:44.183Z,3028
2017-12-06T09:01:44.256Z,2864
2017-12-06T09:02:44.181Z,2904
2017-12-06T09:03:44.185Z,3116
2017-12-06T09:04:44.264Z,3456
2017-12-06T09:05:44.193Z,3476
2017-12-06T09:06:44.265Z,3252
2017-12-06T09:07:44.197Z,3196
2017-12-06T09:08:44.261Z,3084
2017-12-06T09:09:44.230Z,3132
2017-12-06T09:10:44.273Z,3112
2017-12-06T09:11:44.194Z,3228
2017-12-06T09:12:44.263Z,3556
2017-12-06T09:13:44.176Z,3528
2017-12-06T09:14:44.170Z,3440
2017-12-06T09:15:44.135Z,3280
2017-12-06T09:16:44.230Z,3292
2017-12-06T09:17:44.146Z,3512
2017-12-06T09:18:44.177Z,3536
2017-12-06T09:19:44.173Z,3228
2017-12-06T09:20:44.208Z,3376
2017-12-06T09:21:44.144Z,3384
2017-12-06T09:22:44.216Z,3628
2017-12-06T09:23:44.224Z,3680
2017-12-06T09:24:44.215Z,3732
2017-12-06T09:25:44.215Z,3816
2017-12-06T09:26:44.156Z,3720
2017-12-06T09:27:44.222Z,4080
2017-12-06T09:28:44.136Z,3904
2017-12-06T09:29:44.236Z,3964
2017-12-06T09:30:44.131Z,4212
2017-12-06T09:31:44.240Z,4340
2017-12-06T09:32:44.165Z,4188
2017-12-06T09:33:44.206Z,4072
2017-12-06T09:34:44.276Z,4132
2017-12-06T09:35:44.205Z,4100
2017-12-06T09:36:44.277Z,4356
2017-12-06T09:37:44.203Z,4568
2017-12-06T09:38:44.278Z,4188
2017-12-06T09:39:44.207Z,4028
2017-12-06T09:40:44.282Z,4592
2017-12-06T09:41:44.210Z,4216
2017-12-06T09:42:44.284Z,4072
2017-12-06T09:43:44.280Z,4304
2017-12-06T09:44:44.211Z,4564
2017-12-06T09:45:44.285Z,4708
2017-12-06T09:46:44.215Z,4732
2017-12-06T09:47:44.289Z,4672
2017-12-06T09:48:44.217Z,4352
2017-12-06T09:49:44.286Z,4636
2017-12-06T09:50:44.214Z,4300
2017-12-06T09:51:44.287Z,4372
2017-12-06T09:52:44.225Z,4716
2017-12-06T09:53:44.212Z,4744
2017-12-06T09:54:44.289Z,4668
2017-12-06T09:55:44.215Z,4764
2017-12-06T09:56:44.291Z,4308
2017-12-06T09:57:44.216Z,4056
2017-12-06T09:58:44.294Z,4168
2017-12-06T09:59:44.221Z,4576
2017-12-06T10:00:44.179Z,4392
2017-12-06T10:01:44.224Z,4384
2017-12-06T10:02:44.297Z,4212
2017-12-06T10:03:44.225Z,4208
2017-12-06T10:04:44.297Z,4328
2017-12-06T10:05:44.225Z,4456
2017-12-06T10:06:44.295Z,4500
2017-12-06T10:07:44.230Z,4916
2017-12-06T10:08:44.295Z,4836
2017-12-06T10:09:44.229Z,4176
2017-12-06T10:10:44.298Z,3920
2017-12-06T10:11:44.225Z,4048
2017-12-06T10:12:44.298Z,3908
2017-12-06T10:13:44.287Z,4184
2017-12-06T10:14:44.271Z,4312
2017-12-06T10:15:44.212Z,4540
2017-12-06T10:16:44.291Z,4840
2017-12-06T10:17:44.300Z,5180
2017-12-06T10:18:44.214Z,4732
2017-12-06T10:19:44.272Z,4472
2017-12-06T10:20:44.211Z,4572
2017-12-06T10:21:44.183Z,4788
2017-12-06T10:22:44.270Z,5300
2017-12-06T10:23:44.227Z,5412
2017-12-06T10:24:44.305Z,5200
2017-12-06T10:25:44.231Z,5072
2017-12-06T10:26:44.310Z,5592
2017-12-06T10:27:44.306Z,6056
2017-12-06T10:28:44.235Z,5228
2017-12-06T10:29:44.308Z,4836
2017-12-06T10:30:44.233Z,5460
2017-12-06T10:31:44.310Z,5980
2017-12-06T10:32:44.247Z,5884
2017-12-06T10:33:44.201Z,5716
2017-12-06T10:34:44.269Z,5652
2017-12-06T10:35:44.200Z,5656
2017-12-06T10:36:44.271Z,5756
2017-12-06T10:37:44.241Z,5356
2017-12-06T10:38:44.182Z,5120
2017-12-06T10:39:44.181Z,5844
2017-12-06T10:40:44.266Z,5568
2017-12-06T10:41:44.267Z,5216
2017-12-06T10:42:44.223Z,5232
2017-12-06T10:43:44.244Z,5432
2017-12-06T10:44:44.317Z,5080
2017-12-06T10:45:44.340Z,4724
2017-12-06T10:46:44.247Z,5104
2017-12-06T10:47:44.247Z,5180
2017-12-06T10:48:44.322Z,5148
2017-12-06T10:49:44.249Z,5496
2017-12-06T10:50:44.325Z,5420
2017-12-06T10:51:44.248Z,5516
2017-12-06T10:52:44.324Z,5388
2017-12-06T10:53:44.247Z,4908
2017-12-06T10:54:44.234Z,5172
2017-12-06T10:55:44.220Z,5412
2017-12-06T10:56:44.301Z,5152
2017-12-06T10:57:44.212Z,5304
2017-12-06T10:58:44.226Z,5308
2017-12-06T10:59:44.214Z,5192
2017-12-06T11:00:44.280Z,4904
2017-12-06T11:01:44.190Z,4944
2017-12-06T11:02:44.210Z,4980
2017-12-06T11:03:44.264Z,5112
2017-12-06T11:04:44.330Z,5044
2017-12-06T11:05:44.288Z,4788
2017-12-06T11:06:44.331Z,4820
2017-12-06T11:07:44.335Z,5164
2017-12-06T11:08:44.259Z,5456
2017-12-06T11:09:44.337Z,5244
2017-12-06T11:10:44.255Z,5120
2017-12-06T11:11:44.336Z,5148
2017-12-06T11:12:44.269Z,5340
2017-12-06T11:13:44.335Z,5328
2017-12-06T11:14:44.334Z,5248
2017-12-06T11:15:44.262Z,5164
2017-12-06T11:16:44.265Z,5104
2017-12-06T11:17:44.338Z,5172
2017-12-06T11:18:44.267Z,5296
2017-12-06T11:19:44.340Z,5424
2017-12-06T11:20:44.263Z,4956
2017-12-06T11:21:44.270Z,4760
2017-12-06T11:22:44.341Z,5396
2017-12-06T11:23:44.269Z,5128
2017-12-06T11:24:44.343Z,4932
2017-12-06T11:25:44.271Z,5072
2017-12-06T11:26:44.342Z,4896
2017-12-06T11:27:44.273Z,4736
2017-12-06T11:28:44.343Z,4680
2017-12-06T11:29:44.274Z,4516
2017-12-06T11:30:44.348Z,4472
2017-12-06T11:31:44.346Z,4712
2017-12-06T11:32:44.272Z,4680
2017-12-06T11:33:44.386Z,4540
2017-12-06T11:34:44.272Z,4360
2017-12-06T11:35:44.349Z,4272
2017-12-06T11:36:44.300Z,4376
2017-12-06T11:37:44.351Z,4520
2017-12-06T11:38:44.285Z,4664
2017-12-06T11:39:44.350Z,4604
2017-12-06T11:40:44.280Z,4632
2017-12-06T11:41:44.350Z,4468
2017-12-06T11:42:44.285Z,4484
2017-12-06T11:43:44.356Z,4664
2017-12-06T11:46:54.287Z,4924
2017-12-06T11:47:44.348Z,4860
2017-12-06T11:48:44.275Z,4876
2017-12-06T11:49:44.351Z,4632
2017-12-06T11:54:44.350Z,4688
2017-12-06T11:55:44.279Z,4448
2017-12-06T11:56:44.351Z,4508
2017-12-06T11:57:44.278Z,4624
2017-12-06T11:58:44.353Z,4620
2017-12-06T11:59:44.352Z,4564
2017-12-06T12:00:44.351Z,4364
2017-12-06T12:01:44.266Z,4532
2017-12-06T12:02:44.283Z,4520
2017-12-06T12:03:44.356Z,4252
2017-12-06T12:04:44.211Z,4096
2017-12-06T12:05:44.261Z,4164
2017-12-06T12:06:44.165Z,4296
2017-12-06T12:07:44.252Z,4328
2017-12-06T12:08:44.171Z,4128
2017-12-06T12:09:44.176Z,4108
2017-12-06T12:10:44.174Z,4116
2017-12-06T12:11:44.205Z,4208
2017-12-06T12:12:44.264Z,4188
2017-12-06T12:13:44.263Z,4472
2017-12-06T12:14:44.257Z,4320
2017-12-06T12:15:44.306Z,4544
2017-12-06T12:16:44.303Z,4472
2017-12-06T12:17:44.311Z,4364
2017-12-06T12:18:44.215Z,4416
2017-12-06T12:19:44.314Z,4340
2017-12-06T12:20:44.303Z,4188
2017-12-06T12:21:44.261Z,4380
2017-12-06T12:22:44.270Z,4560
2017-12-06T12:23:44.308Z,4784
2017-12-06T12:24:44.368Z,5252
2017-12-06T12:25:44.345Z,4556
2017-12-06T12:26:44.372Z,4044
2017-12-06T12:27:44.306Z,4068
2017-12-06T12:28:44.299Z,4252
2017-12-06T12:29:44.372Z,4192
2017-12-06T12:30:44.370Z,4156
2017-12-06T12:31:44.303Z,3936
2017-12-06T12:32:44.374Z,4044
2017-12-06T12:33:44.307Z,4116
2017-12-06T12:34:44.377Z,4024
2017-12-06T12:35:44.307Z,3828
2017-12-06T12:36:44.376Z,3800
2017-12-06T12:37:44.305Z,4256
2017-12-06T12:38:44.379Z,4948
2017-12-06T12:39:44.307Z,4800
2017-12-06T12:40:44.378Z,4912
2017-12-06T12:41:44.300Z,4764
2017-12-06T12:42:44.315Z,4840
2017-12-06T12:43:44.379Z,5112
2017-12-06T12:44:44.383Z,4900
2017-12-06T12:45:44.307Z,4660
2017-12-06T12:46:44.382Z,4700
2017-12-06T12:47:44.308Z,4820
2017-12-06T12:48:44.313Z,4668
2017-12-06T12:49:44.389Z,4672
2017-12-06T12:50:44.312Z,4816
2017-12-06T12:51:44.269Z,4576
2017-12-06T12:52:44.314Z,4764
2017-12-06T12:53:44.387Z,4980
2017-12-06T12:54:44.387Z,4748
2017-12-06T12:55:44.297Z,4928
2017-12-06T12:56:44.389Z,4996
2017-12-06T12:57:44.355Z,5032
2017-12-06T12:58:44.312Z,4848
2017-12-06T12:59:44.379Z,4584
2017-12-06T13:00:44.297Z,4452
2017-12-06T13:01:44.357Z,4696
2017-12-06T13:02:44.335Z,4728
2017-12-06T13:03:44.339Z,4428
2017-12-06T13:04:44.338Z,4272
2017-12-06T13:05:44.299Z,4436
2017-12-06T13:06:44.272Z,4148
2017-12-06T13:07:44.339Z,4064
2017-12-06T13:08:44.382Z,4536
2017-12-06T13:09:44.375Z,4432
2017-12-06T13:10:44.320Z,4660
2017-12-06T13:11:44.338Z,4508
2017-12-06T13:12:44.308Z,4680
2017-12-06T13:13:44.396Z,4896
2017-12-06T13:14:44.331Z,5212
2017-12-06T13:15:44.288Z,5088
2017-12-06T13:16:44.331Z,4880
2017-12-06T13:17:44.256Z,4648
2017-12-06T13:18:44.352Z,4472
2017-12-06T13:19:44.331Z,4908
2017-12-06T13:20:44.329Z,4716
2017-12-06T13:21:44.386Z,4320
2017-12-06T13:22:44.335Z,4356
2017-12-06T13:23:44.388Z,4272
2017-12-06T13:24:44.335Z,4156
2017-12-06T13:25:44.341Z,4080
2017-12-06T13:26:44.336Z,4144
2017-12-06T13:27:44.406Z,4152
2017-12-06T13:28:44.343Z,4076
2017-12-06T13:29:44.411Z,4268
2017-12-06T13:30:44.356Z,4168
2017-12-06T13:31:44.409Z,3888
2017-12-06T13:32:44.338Z,4056
2017-12-06T13:33:44.344Z,4352
2017-12-06T13:34:44.341Z,4284
2017-12-06T13:35:44.412Z,4036
2017-12-06T13:36:44.372Z,4280
2017-12-06T13:37:44.413Z,4196
2017-12-06T13:38:44.337Z,4152
2017-12-06T13:39:44.420Z,4072
2017-12-06T13:40:44.349Z,4176
2017-12-06T13:41:44.339Z,4268
2017-12-06T13:42:44.341Z,4156
2017-12-06T13:43:44.346Z,4012
2017-12-06T13:44:44.307Z,4128
2017-12-06T13:45:44.402Z,4068
2017-12-06T13:46:44.321Z,3952
2017-12-06T13:47:44.284Z,4144
2017-12-06T13:48:44.325Z,4092
2017-12-06T13:49:44.400Z,3792
2017-12-06T13:50:44.361Z,4080
2017-12-06T13:51:44.306Z,3732
2017-12-06T13:52:44.381Z,3404
2017-12-06T13:53:44.398Z,3224
2017-12-06T13:54:44.365Z,3372
2017-12-06T13:55:44.353Z,3376
2017-12-06T13:56:44.429Z,3100
2017-12-06T13:57:44.353Z,3060
2017-12-06T13:58:44.424Z,3072
2017-12-06T13:59:44.354Z,3032
2017-12-06T14:00:44.355Z,2848
2017-12-06T14:01:44.425Z,2748
2017-12-06T14:02:44.437Z,2720
2017-12-06T14:03:44.358Z,2780
2017-12-06T14:04:44.248Z,2460
2017-12-06T14:05:44.309Z,2360
2017-12-06T14:06:44.243Z,2424
2017-12-06T14:07:44.250Z,2432
2017-12-06T14:08:44.250Z,2288